sensor_id;sensor_type;location;lat;lon;timestamp;P1;durP1;ratioP1;P2;durP2;ratioP2
67429;SDS011;54298;52.076;5.264;2022-12-11T00:03:07;131.81;;;47.8;;
67429;SDS011;54298;52.076;5.264;2022-12-11T00:04:44;133.31;;;57.1;;
67429;SDS011;54298;52.076;5.264;2022-12-11T00:06:20;144.71;;;56.3;;
67429;SDS011;54298;52.076;5.264;2022-12-11T00:07:58;147.5;;;54.8;;
67429;SDS011;54298;52.076;5.264;2022-12-11T00:11:11;133.4;;;50.3;;
67429;SDS011;54298;52.076;5.264;2022-12-11T00:12:49;130.31;;;64.1;;
67429;SDS011;54298;52.076;5.264;2022-12-11T00:14:25;131.31;;;56.3;;
67429;SDS011;54298;52.076;5.264;2022-12-11T00:17:39;125.5;;;57.2;;
67429;SDS011;54298;52.076;5.264;2022-12-11T00:19:15;114.3;;;47.6;;
67429;SDS011;54298;52.076;5.264;2022-12-11T00:20:52;131.6;;;53.1;;
67429;SDS011;54298;52.076;5.264;2022-12-11T00:22:29;114.5;;;54.5;;
67429;SDS011;54298;52.076;5.264;2022-12-11T00:25:43;123.8;;;57.5;;
67429;SDS011;54298;52.076;5.264;2022-12-11T00:27:23;124.2;;;56.2;;
67429;SDS011;54298;52.076;5.264;2022-12-11T00:28:59;123.3;;;51.4;;
67429;SDS011;54298;52.076;5.264;2022-12-11T00:32:15;119.6;;;48.9;;
67429;SDS011;54298;52.076;5.264;2022-12-11T00:33:51;122.1;;;51.1;;
67429;SDS011;54298;52.076;5.264;2022-12-11T00:35:27;113.9;;;54.3;;
67429;SDS011;54298;52.076;5.264;2022-12-11T00:38:39;115.2;;;46.5;;
67429;SDS011;54298;52.076;5.264;2022-12-11T00:40:16;137.5;;;51.1;;
67429;SDS011;54298;52.076;5.264;2022-12-11T00:41:53;122.4;;;48.9;;
67429;SDS011;54298;52.076;5.264;2022-12-11T00:43:29;125.0;;;53.4;;
67429;SDS011;54298;52.076;5.264;2022-12-11T00:46:42;119.1;;;54.8;;
67429;SDS011;54298;52.076;5.264;2022-12-11T00:48:18;135.81;;;61.0;;
67429;SDS011;54298;52.076;5.264;2022-12-11T00:49:54;139.5;;;58.7;;
67429;SDS011;54298;52.076;5.264;2022-12-11T00:53:07;126.1;;;60.0;;
67429;SDS011;54298;52.076;5.264;2022-12-11T00:54:43;114.4;;;51.3;;
67429;SDS011;54298;52.076;5.264;2022-12-11T00:56:21;140.9;;;54.0;;
67429;SDS011;54298;52.076;5.264;2022-12-11T00:59:34;133.81;;;56.1;;
67429;SDS011;54298;52.076;5.264;2022-12-11T01:01:12;133.9;;;60.1;;
67429;SDS011;54298;52.076;5.264;2022-12-11T01:02:51;133.5;;;52.1;;
67429;SDS011;54298;52.076;5.264;2022-12-11T01:06:04;143.4;;;67.8;;
67429;SDS011;54298;52.076;5.264;2022-12-11T01:07:41;131.31;;;53.1;;
67429;SDS011;54298;52.076;5.264;2022-12-11T01:10:35;159.81;;;69.41;;
67429;SDS011;54298;52.076;5.264;2022-12-11T01:12:11;137.1;;;66.0;;
67429;SDS011;54298;52.076;5.264;2022-12-11T01:13:47;144.21;;;67.6;;
67429;SDS011;54298;52.076;5.264;2022-12-11T01:15:24;132.2;;;61.9;;
67429;SDS011;54298;52.076;5.264;2022-12-11T01:17:02;151.9;;;64.91;;
67429;SDS011;54298;52.076;5.264;2022-12-11T01:20:16;140.5;;;59.6;;
67429;SDS011;54298;52.076;5.264;2022-12-11T01:21:55;147.81;;;67.3;;
67429;SDS011;54298;52.076;5.264;2022-12-11T01:23:31;132.2;;;54.1;;
67429;SDS011;54298;52.076;5.264;2022-12-11T01:26:45;146.31;;;64.5;;
67429;SDS011;54298;52.076;5.264;2022-12-11T01:28:21;154.6;;;70.5;;
67429;SDS011;54298;52.076;5.264;2022-12-11T01:29:58;130.9;;;59.8;;
67429;SDS011;54298;52.076;5.264;2022-12-11T01:31:34;139.21;;;63.1;;
67429;SDS011;54298;52.076;5.264;2022-12-11T01:34:48;156.1;;;66.6;;
67429;SDS011;54298;52.076;5.264;2022-12-11T01:36:24;152.71;;;66.5;;
67429;SDS011;54298;52.076;5.264;2022-12-11T01:39:38;145.81;;;65.5;;
67429;SDS011;54298;52.076;5.264;2022-12-11T01:41:15;148.9;;;70.61;;
67429;SDS011;54298;52.076;5.264;2022-12-11T01:42:52;130.7;;;52.7;;
67429;SDS011;54298;52.076;5.264;2022-12-11T01:45:12;147.4;;;63.6;;
67429;SDS011;54298;52.076;5.264;2022-12-11T01:46:59;148.0;;;59.8;;
67429;SDS011;54298;52.076;5.264;2022-12-11T01:48:36;144.0;;;64.2;;
67429;SDS011;54298;52.076;5.264;2022-12-11T01:51:52;146.9;;;66.41;;
67429;SDS011;54298;52.076;5.264;2022-12-11T01:53:39;138.9;;;60.2;;
67429;SDS011;54298;52.076;5.264;2022-12-11T01:55:20;138.9;;;60.2;;
67429;SDS011;54298;52.076;5.264;2022-12-11T01:56:59;116.7;;;52.0;;
67429;SDS011;54298;52.076;5.264;2022-12-11T02:00:22;124.4;;;53.9;;
67429;SDS011;54298;52.076;5.264;2022-12-11T02:01:59;130.81;;;51.7;;
67429;SDS011;54298;52.076;5.264;2022-12-11T02:03:41;125.1;;;56.1;;
67429;SDS011;54298;52.076;5.264;2022-12-11T02:05:18;131.9;;;57.6;;
67429;SDS011;54298;52.076;5.264;2022-12-11T02:08:31;127.2;;;57.1;;
67429;SDS011;54298;52.076;5.264;2022-12-11T02:10:08;136.6;;;53.4;;
67429;SDS011;54298;52.076;5.264;2022-12-11T02:11:47;119.8;;;63.2;;
67429;SDS011;54298;52.076;5.264;2022-12-11T02:13:36;121.8;;;48.7;;
67429;SDS011;54298;52.076;5.264;2022-12-11T02:17:10;124.4;;;61.0;;
67429;SDS011;54298;52.076;5.264;2022-12-11T02:18:52;104.1;;;46.2;;
67429;SDS011;54298;52.076;5.264;2022-12-11T02:20:36;109.6;;;53.6;;
67429;SDS011;54298;52.076;5.264;2022-12-11T02:22:18;110.2;;;53.4;;
67429;SDS011;54298;52.076;5.264;2022-12-11T02:24:21;110.2;;;53.4;;
67429;SDS011;54298;52.076;5.264;2022-12-11T02:26:29;111.9;;;57.9;;
67429;SDS011;54298;52.076;5.264;2022-12-11T02:28:21;98.2;;;49.6;;
67429;SDS011;54298;52.076;5.264;2022-12-11T02:31:44;102.8;;;43.1;;
67429;SDS011;54298;52.076;5.264;2022-12-11T02:33:27;111.2;;;47.1;;
67429;SDS011;54298;52.076;5.264;2022-12-11T02:35:12;103.5;;;49.2;;
67429;SDS011;54298;52.076;5.264;2022-12-11T02:36:55;103.4;;;48.7;;
67429;SDS011;54298;52.076;5.264;2022-12-11T02:38:38;117.4;;;51.4;;
67429;SDS011;54298;52.076;5.264;2022-12-11T02:42:02;107.7;;;54.5;;
67429;SDS011;54298;52.076;5.264;2022-12-11T02:43:40;100.7;;;51.7;;
67429;SDS011;54298;52.076;5.264;2022-12-11T02:45:18;107.1;;;63.7;;
67429;SDS011;54298;52.076;5.264;2022-12-11T02:46:57;99.5;;;49.0;;
67429;SDS011;54298;52.076;5.264;2022-12-11T02:50:15;94.4;;;51.6;;
67429;SDS011;54298;52.076;5.264;2022-12-11T02:51:55;105.4;;;57.4;;
67429;SDS011;54298;52.076;5.264;2022-12-11T02:53:37;91.6;;;47.5;;
67429;SDS011;54298;52.076;5.264;2022-12-11T02:55:17;94.7;;;48.8;;
67429;SDS011;54298;52.076;5.264;2022-12-11T02:58:40;100.8;;;57.1;;
67429;SDS011;54298;52.076;5.264;2022-12-11T03:00:21;100.8;;;57.1;;
67429;SDS011;54298;52.076;5.264;2022-12-11T03:01:58;83.6;;;44.5;;
67429;SDS011;54298;52.076;5.264;2022-12-11T03:03:36;87.4;;;49.2;;
67429;SDS011;54298;52.076;5.264;2022-12-11T03:06:51;90.1;;;54.4;;
67429;SDS011;54298;52.076;5.264;2022-12-11T03:08:37;80.0;;;43.5;;
67429;SDS011;54298;52.076;5.264;2022-12-11T03:10:15;81.91;;;51.4;;
67429;SDS011;54298;52.076;5.264;2022-12-11T03:13:30;85.3;;;51.1;;
67429;SDS011;54298;52.076;5.264;2022-12-11T03:15:08;82.3;;;50.8;;
67429;SDS011;54298;52.076;5.264;2022-12-11T03:16:50;79.5;;;44.8;;
67429;SDS011;54298;52.076;5.264;2022-12-11T03:18:35;83.2;;;52.2;;
67429;SDS011;54298;52.076;5.264;2022-12-11T03:20:20;86.2;;;50.7;;
67429;SDS011;54298;52.076;5.264;2022-12-11T03:23:53;84.6;;;47.5;;
67429;SDS011;54298;52.076;5.264;2022-12-11T03:25:38;77.91;;;44.9;;
67429;SDS011;54298;52.076;5.264;2022-12-11T03:27:23;78.61;;;46.1;;
67429;SDS011;54298;52.076;5.264;2022-12-11T03:29:11;81.5;;;44.3;;
67429;SDS011;54298;52.076;5.264;2022-12-11T03:30:53;82.2;;;52.9;;
67429;SDS011;54298;52.076;5.264;2022-12-11T03:34:16;74.5;;;49.1;;
67429;SDS011;54298;52.076;5.264;2022-12-11T03:35:58;76.8;;;52.7;;
67429;SDS011;54298;52.076;5.264;2022-12-11T03:37:40;67.3;;;43.0;;
67429;SDS011;54298;52.076;5.264;2022-12-11T03:39:20;68.5;;;44.5;;
67429;SDS011;54298;52.076;5.264;2022-12-11T03:42:44;74.41;;;46.9;;
67429;SDS011;54298;52.076;5.264;2022-12-11T03:44:25;71.7;;;47.1;;
67429;SDS011;54298;52.076;5.264;2022-12-11T03:46:05;66.91;;;42.1;;
67429;SDS011;54298;52.076;5.264;2022-12-11T03:47:44;74.3;;;50.4;;
67429;SDS011;54298;52.076;5.264;2022-12-11T03:51:04;60.2;;;38.1;;
67429;SDS011;54298;52.076;5.264;2022-12-11T03:52:43;66.0;;;41.6;;
67429;SDS011;54298;52.076;5.264;2022-12-11T03:54:22;59.9;;;42.7;;
67429;SDS011;54298;52.076;5.264;2022-12-11T03:56:00;60.9;;;43.2;;
67429;SDS011;54298;52.076;5.264;2022-12-11T03:59:16;59.3;;;41.9;;
67429;SDS011;54298;52.076;5.264;2022-12-11T04:00:52;58.1;;;39.9;;
67429;SDS011;54298;52.076;5.264;2022-12-11T04:02:28;59.1;;;43.0;;
67429;SDS011;54298;52.076;5.264;2022-12-11T04:05:41;59.3;;;42.5;;
67429;SDS011;54298;52.076;5.264;2022-12-11T04:07:20;52.2;;;35.31;;
67429;SDS011;54298;52.076;5.264;2022-12-11T04:08:56;56.6;;;40.21;;
67429;SDS011;54298;52.076;5.264;2022-12-11T04:10:32;59.9;;;41.2;;
67429;SDS011;54298;52.076;5.264;2022-12-11T04:13:44;55.4;;;38.21;;
67429;SDS011;54298;52.076;5.264;2022-12-11T04:15:22;51.7;;;40.71;;
67429;SDS011;54298;52.076;5.264;2022-12-11T04:16:59;53.9;;;40.5;;
67429;SDS011;54298;52.076;5.264;2022-12-11T04:24:28;51.6;;;35.81;;
67429;SDS011;54298;52.076;5.264;2022-12-11T04:26:06;49.3;;;33.1;;
67429;SDS011;54298;52.076;5.264;2022-12-11T04:27:52;51.1;;;38.0;;
67429;SDS011;54298;52.076;5.264;2022-12-11T04:29:28;54.4;;;38.9;;
67429;SDS011;54298;52.076;5.264;2022-12-11T04:32:41;61.3;;;43.0;;
67429;SDS011;54298;52.076;5.264;2022-12-11T04:34:18;57.6;;;40.81;;
67429;SDS011;54298;52.076;5.264;2022-12-11T04:35:56;52.9;;;36.5;;
67429;SDS011;54298;52.076;5.264;2022-12-11T04:39:10;45.4;;;30.4;;
67429;SDS011;54298;52.076;5.264;2022-12-11T04:40:46;45.2;;;31.6;;
67429;SDS011;54298;52.076;5.264;2022-12-11T04:42:22;50.8;;;34.5;;
67429;SDS011;54298;52.076;5.264;2022-12-11T04:43:58;48.2;;;34.21;;
67429;SDS011;54298;52.076;5.264;2022-12-11T04:47:10;46.8;;;31.9;;
67429;SDS011;54298;52.076;5.264;2022-12-11T04:48:47;50.0;;;33.8;;
67429;SDS011;54298;52.076;5.264;2022-12-11T04:50:24;50.0;;;33.8;;
67429;SDS011;54298;52.076;5.264;2022-12-11T04:53:37;47.6;;;31.6;;
67429;SDS011;54298;52.076;5.264;2022-12-11T04:55:13;48.3;;;32.8;;
67429;SDS011;54298;52.076;5.264;2022-12-11T04:56:50;49.1;;;32.71;;
67429;SDS011;54298;52.076;5.264;2022-12-11T05:00:04;43.4;;;29.2;;
67429;SDS011;54298;52.076;5.264;2022-12-11T05:01:44;46.3;;;31.1;;
67429;SDS011;54298;52.076;5.264;2022-12-11T05:03:20;44.9;;;30.8;;
67429;SDS011;54298;52.076;5.264;2022-12-11T05:04:59;43.9;;;34.0;;
67429;SDS011;54298;52.076;5.264;2022-12-11T05:08:11;44.6;;;31.2;;
67429;SDS011;54298;52.076;5.264;2022-12-11T05:09:47;49.7;;;34.31;;
67429;SDS011;54298;52.076;5.264;2022-12-11T05:11:23;43.9;;;31.4;;
67429;SDS011;54298;52.076;5.264;2022-12-11T05:14:36;43.1;;;31.9;;
67429;SDS011;54298;52.076;5.264;2022-12-11T05:16:13;47.6;;;34.1;;
67429;SDS011;54298;52.076;5.264;2022-12-11T05:17:52;46.3;;;32.3;;
67429;SDS011;54298;52.076;5.264;2022-12-11T05:21:05;41.8;;;30.0;;
67429;SDS011;54298;52.076;5.264;2022-12-11T05:22:45;45.3;;;33.8;;
67429;SDS011;54298;52.076;5.264;2022-12-11T05:24:22;42.6;;;30.4;;
67429;SDS011;54298;52.076;5.264;2022-12-11T05:25:59;45.8;;;35.0;;
67429;SDS011;54298;52.076;5.264;2022-12-11T05:29:13;43.7;;;33.1;;
67429;SDS011;54298;52.076;5.264;2022-12-11T05:30:53;47.3;;;32.3;;
67429;SDS011;54298;52.076;5.264;2022-12-11T05:32:31;47.3;;;33.3;;
67429;SDS011;54298;52.076;5.264;2022-12-11T05:35:45;43.3;;;31.1;;
67429;SDS011;54298;52.076;5.264;2022-12-11T05:37:22;47.4;;;30.8;;
67429;SDS011;54298;52.076;5.264;2022-12-11T05:38:59;45.7;;;32.1;;
67429;SDS011;54298;52.076;5.264;2022-12-11T05:40:37;42.5;;;31.5;;
67429;SDS011;54298;52.076;5.264;2022-12-11T05:43:49;43.0;;;30.9;;
67429;SDS011;54298;52.076;5.264;2022-12-11T05:45:26;49.5;;;35.31;;
67429;SDS011;54298;52.076;5.264;2022-12-11T05:47:02;47.8;;;33.8;;
67429;SDS011;54298;52.076;5.264;2022-12-11T05:50:17;47.4;;;33.1;;
67429;SDS011;54298;52.076;5.264;2022-12-11T05:51:53;53.3;;;33.71;;
67429;SDS011;54298;52.076;5.264;2022-12-11T05:53:29;50.1;;;31.2;;
67429;SDS011;54298;52.076;5.264;2022-12-11T05:55:06;50.1;;;35.9;;
67429;SDS011;54298;52.076;5.264;2022-12-11T05:58:21;46.8;;;31.4;;
67429;SDS011;54298;52.076;5.264;2022-12-11T05:59:58;52.0;;;37.4;;
67429;SDS011;54298;52.076;5.264;2022-12-11T06:01:34;48.3;;;33.3;;
67429;SDS011;54298;52.076;5.264;2022-12-11T06:04:50;46.3;;;31.6;;
67429;SDS011;54298;52.076;5.264;2022-12-11T06:06:27;52.2;;;34.5;;
67429;SDS011;54298;52.076;5.264;2022-12-11T06:08:04;51.0;;;34.0;;
67429;SDS011;54298;52.076;5.264;2022-12-11T06:11:17;48.1;;;33.6;;
67429;SDS011;54298;52.076;5.264;2022-12-11T06:12:54;50.6;;;33.3;;
67429;SDS011;54298;52.076;5.264;2022-12-11T06:14:30;50.6;;;33.3;;
67429;SDS011;54298;52.076;5.264;2022-12-11T06:16:07;45.6;;;31.4;;
67429;SDS011;54298;52.076;5.264;2022-12-11T06:19:21;49.1;;;31.6;;
67429;SDS011;54298;52.076;5.264;2022-12-11T06:20:58;57.9;;;41.7;;
67429;SDS011;54298;52.076;5.264;2022-12-11T06:22:34;49.2;;;33.1;;
67429;SDS011;54298;52.076;5.264;2022-12-11T06:25:47;51.2;;;34.6;;
67429;SDS011;54298;52.076;5.264;2022-12-11T06:27:23;49.0;;;34.21;;
67429;SDS011;54298;52.076;5.264;2022-12-11T06:28:59;51.1;;;34.81;;
67429;SDS011;54298;52.076;5.264;2022-12-11T06:32:14;48.6;;;38.6;;
67429;SDS011;54298;52.076;5.264;2022-12-11T06:33:50;50.0;;;34.71;;
67429;SDS011;54298;52.076;5.264;2022-12-11T06:35:26;49.8;;;32.4;;
67429;SDS011;54298;52.076;5.264;2022-12-11T06:37:02;48.9;;;31.8;;
67429;SDS011;54298;52.076;5.264;2022-12-11T06:40:16;48.9;;;35.31;;
67429;SDS011;54298;52.076;5.264;2022-12-11T06:41:53;51.2;;;35.1;;
67429;SDS011;54298;52.076;5.264;2022-12-11T06:43:29;55.9;;;40.21;;
67429;SDS011;54298;52.076;5.264;2022-12-11T06:46:43;53.2;;;37.0;;
67429;SDS011;54298;52.076;5.264;2022-12-11T06:48:20;53.3;;;37.9;;
67429;SDS011;54298;52.076;5.264;2022-12-11T06:49:56;54.6;;;38.0;;
67429;SDS011;54298;52.076;5.264;2022-12-11T06:53:09;49.0;;;33.9;;
67429;SDS011;54298;52.076;5.264;2022-12-11T06:54:47;58.1;;;39.0;;
67429;SDS011;54298;52.076;5.264;2022-12-11T06:56:24;52.6;;;38.4;;
67429;SDS011;54298;52.076;5.264;2022-12-11T06:58:00;58.4;;;44.8;;
67429;SDS011;54298;52.076;5.264;2022-12-11T07:01:13;54.6;;;40.4;;
67429;SDS011;54298;52.076;5.264;2022-12-11T07:02:52;54.4;;;38.9;;
67429;SDS011;54298;52.076;5.264;2022-12-11T07:04:29;53.9;;;38.5;;
67429;SDS011;54298;52.076;5.264;2022-12-11T07:07:42;55.8;;;44.8;;
67429;SDS011;54298;52.076;5.264;2022-12-11T07:09:19;52.8;;;37.71;;
67429;SDS011;54298;52.076;5.264;2022-12-11T07:11:00;53.6;;;39.31;;
67429;SDS011;54298;52.076;5.264;2022-12-11T07:12:38;50.3;;;35.6;;
67429;SDS011;54298;52.076;5.264;2022-12-11T07:15:50;55.2;;;40.71;;
67429;SDS011;54298;52.076;5.264;2022-12-11T07:17:27;55.0;;;40.0;;
67429;SDS011;54298;52.076;5.264;2022-12-11T07:19:04;51.5;;;37.5;;
67429;SDS011;54298;52.076;5.264;2022-12-11T07:22:16;53.7;;;37.0;;
67429;SDS011;54298;52.076;5.264;2022-12-11T07:23:52;54.7;;;36.31;;
67429;SDS011;54298;52.076;5.264;2022-12-11T07:25:29;50.9;;;37.6;;
67429;SDS011;54298;52.076;5.264;2022-12-11T07:28:41;47.4;;;32.0;;
67429;SDS011;54298;52.076;5.264;2022-12-11T07:30:18;50.6;;;37.31;;
67429;SDS011;54298;52.076;5.264;2022-12-11T07:31:54;52.4;;;38.81;;
67429;SDS011;54298;52.076;5.264;2022-12-11T07:33:31;49.8;;;33.0;;
67429;SDS011;54298;52.076;5.264;2022-12-11T07:36:44;52.2;;;38.4;;
67429;SDS011;54298;52.076;5.264;2022-12-11T07:38:20;45.1;;;34.4;;
67429;SDS011;54298;52.076;5.264;2022-12-11T07:39:56;49.4;;;39.21;;
67429;SDS011;54298;52.076;5.264;2022-12-11T07:43:10;45.6;;;32.1;;
67429;SDS011;54298;52.076;5.264;2022-12-11T07:44:46;46.4;;;34.6;;
67429;SDS011;54298;52.076;5.264;2022-12-11T07:46:23;50.9;;;38.21;;
67429;SDS011;54298;52.076;5.264;2022-12-11T07:48:03;42.8;;;30.9;;
67429;SDS011;54298;52.076;5.264;2022-12-11T07:51:17;50.9;;;40.4;;
67429;SDS011;54298;52.076;5.264;2022-12-11T07:52:55;49.8;;;38.4;;
67429;SDS011;54298;52.076;5.264;2022-12-11T07:54:31;49.2;;;39.1;;
67429;SDS011;54298;52.076;5.264;2022-12-11T07:57:44;49.8;;;39.1;;
67429;SDS011;54298;52.076;5.264;2022-12-11T07:59:20;54.0;;;40.21;;
67429;SDS011;54298;52.076;5.264;2022-12-11T08:00:57;70.7;;;48.8;;
67429;SDS011;54298;52.076;5.264;2022-12-11T08:04:10;54.7;;;39.9;;
67429;SDS011;54298;52.076;5.264;2022-12-11T08:05:47;57.5;;;47.3;;
67429;SDS011;54298;52.076;5.264;2022-12-11T08:07:24;59.6;;;45.4;;
67429;SDS011;54298;52.076;5.264;2022-12-11T08:09:01;68.61;;;47.9;;
67429;SDS011;54298;52.076;5.264;2022-12-11T08:12:15;61.0;;;46.1;;
67429;SDS011;54298;52.076;5.264;2022-12-11T08:13:52;55.4;;;44.3;;
67429;SDS011;54298;52.076;5.264;2022-12-11T08:15:29;69.61;;;50.6;;
67429;SDS011;54298;52.076;5.264;2022-12-11T08:18:42;52.9;;;38.9;;
67429;SDS011;54298;52.076;5.264;2022-12-11T08:20:19;51.6;;;37.9;;
67429;SDS011;54298;52.076;5.264;2022-12-11T08:21:56;52.2;;;40.9;;
67429;SDS011;54298;52.076;5.264;2022-12-11T08:25:09;52.3;;;40.9;;
67429;SDS011;54298;52.076;5.264;2022-12-11T08:26:46;45.7;;;33.6;;
67429;SDS011;54298;52.076;5.264;2022-12-11T08:28:23;49.5;;;37.21;;
67429;SDS011;54298;52.076;5.264;2022-12-11T08:30:00;47.9;;;35.31;;
67429;SDS011;54298;52.076;5.264;2022-12-11T08:33:14;51.6;;;39.21;;
67429;SDS011;54298;52.076;5.264;2022-12-11T08:34:50;53.9;;;38.31;;
67429;SDS011;54298;52.076;5.264;2022-12-11T08:36:26;53.9;;;39.6;;
67429;SDS011;54298;52.076;5.264;2022-12-11T08:39:39;52.2;;;38.21;;
67429;SDS011;54298;52.076;5.264;2022-12-11T08:41:16;51.9;;;37.0;;
67429;SDS011;54298;52.076;5.264;2022-12-11T08:42:55;54.9;;;39.6;;
67429;SDS011;54298;52.076;5.264;2022-12-11T08:44:31;58.6;;;43.1;;
67429;SDS011;54298;52.076;5.264;2022-12-11T08:47:44;53.8;;;38.81;;
67429;SDS011;54298;52.076;5.264;2022-12-11T08:49:20;56.5;;;41.2;;
67429;SDS011;54298;52.076;5.264;2022-12-11T08:50:57;51.1;;;37.21;;
67429;SDS011;54298;52.076;5.264;2022-12-11T08:54:11;53.3;;;35.6;;
67429;SDS011;54298;52.076;5.264;2022-12-11T08:55:47;48.4;;;35.0;;
67429;SDS011;54298;52.076;5.264;2022-12-11T08:57:24;52.5;;;39.1;;
67429;SDS011;54298;52.076;5.264;2022-12-11T09:00:37;55.4;;;41.0;;
67429;SDS011;54298;52.076;5.264;2022-12-11T09:02:13;53.9;;;40.6;;
67429;SDS011;54298;52.076;5.264;2022-12-11T09:03:50;50.2;;;38.0;;
67429;SDS011;54298;52.076;5.264;2022-12-11T09:05:28;47.3;;;33.4;;
67429;SDS011;54298;52.076;5.264;2022-12-11T09:08:40;95.7;;;58.4;;
67429;SDS011;54298;52.076;5.264;2022-12-11T09:10:18;50.1;;;35.31;;
67429;SDS011;54298;52.076;5.264;2022-12-11T09:11:55;56.7;;;40.1;;
67429;SDS011;54298;52.076;5.264;2022-12-11T09:15:09;49.6;;;33.21;;
67429;SDS011;54298;52.076;5.264;2022-12-11T09:16:46;51.8;;;38.31;;
67429;SDS011;54298;52.076;5.264;2022-12-11T09:18:22;51.2;;;35.81;;
67429;SDS011;54298;52.076;5.264;2022-12-11T09:21:35;49.2;;;34.71;;
67429;SDS011;54298;52.076;5.264;2022-12-11T09:23:11;53.4;;;40.5;;
67429;SDS011;54298;52.076;5.264;2022-12-11T09:24:47;56.8;;;37.4;;
67429;SDS011;54298;52.076;5.264;2022-12-11T09:26:23;49.5;;;35.6;;
67429;SDS011;54298;52.076;5.264;2022-12-11T09:29:38;47.2;;;35.5;;
67429;SDS011;54298;52.076;5.264;2022-12-11T09:31:16;52.0;;;38.71;;
67429;SDS011;54298;52.076;5.264;2022-12-11T09:32:54;49.4;;;33.9;;
67429;SDS011;54298;52.076;5.264;2022-12-11T09:36:07;52.8;;;36.21;;
67429;SDS011;54298;52.076;5.264;2022-12-11T09:37:43;52.1;;;37.81;;
67429;SDS011;54298;52.076;5.264;2022-12-11T09:39:20;45.5;;;32.9;;
67429;SDS011;54298;52.076;5.264;2022-12-11T09:42:35;51.4;;;35.71;;
67429;SDS011;54298;52.076;5.264;2022-12-11T09:44:30;51.5;;;34.5;;
67429;SDS011;54298;52.076;5.264;2022-12-11T09:46:15;52.0;;;37.81;;
67429;SDS011;54298;52.076;5.264;2022-12-11T09:49:32;51.2;;;35.71;;
67429;SDS011;54298;52.076;5.264;2022-12-11T09:53:10;48.2;;;33.1;;
67429;SDS011;54298;52.076;5.264;2022-12-11T09:54:52;47.1;;;35.6;;
67429;SDS011;54298;52.076;5.264;2022-12-11T09:56:33;48.3;;;36.0;;
67429;SDS011;54298;52.076;5.264;2022-12-11T09:58:18;51.5;;;34.81;;
67429;SDS011;54298;52.076;5.264;2022-12-11T10:00:05;46.2;;;33.1;;
67429;SDS011;54298;52.076;5.264;2022-12-11T10:03:42;49.2;;;35.6;;
67429;SDS011;54298;52.076;5.264;2022-12-11T10:05:32;53.3;;;35.1;;
67429;SDS011;54298;52.076;5.264;2022-12-11T10:07:16;50.8;;;39.0;;
67429;SDS011;54298;52.076;5.264;2022-12-11T10:09:06;71.11;;;44.7;;
67429;SDS011;54298;52.076;5.264;2022-12-11T10:10:54;53.4;;;36.9;;
67429;SDS011;54298;52.076;5.264;2022-12-11T10:12:41;44.9;;;34.6;;
67429;SDS011;54298;52.076;5.264;2022-12-11T10:16:19;44.0;;;33.6;;
67429;SDS011;54298;52.076;5.264;2022-12-11T10:18:10;41.6;;;30.7;;
67429;SDS011;54298;52.076;5.264;2022-12-11T10:19:49;42.7;;;33.1;;
67429;SDS011;54298;52.076;5.264;2022-12-11T10:21:26;42.8;;;32.5;;
67429;SDS011;54298;52.076;5.264;2022-12-11T10:23:15;40.5;;;29.4;;
67429;SDS011;54298;52.076;5.264;2022-12-11T10:24:56;43.5;;;33.3;;
67429;SDS011;54298;52.076;5.264;2022-12-11T10:28:14;38.21;;;27.2;;
67429;SDS011;54298;52.076;5.264;2022-12-11T10:29:53;44.3;;;32.21;;
67429;SDS011;54298;52.076;5.264;2022-12-11T10:31:39;38.6;;;26.8;;
67429;SDS011;54298;52.076;5.264;2022-12-11T10:33:26;41.0;;;28.1;;
67429;SDS011;54298;52.076;5.264;2022-12-11T10:36:54;41.8;;;33.9;;
67429;SDS011;54298;52.076;5.264;2022-12-11T10:38:32;41.3;;;32.71;;
67429;SDS011;54298;52.076;5.264;2022-12-11T10:40:15;40.6;;;30.5;;
67429;SDS011;54298;52.076;5.264;2022-12-11T10:41:55;39.81;;;28.8;;
67429;SDS011;54298;52.076;5.264;2022-12-11T10:45:14;41.5;;;30.4;;
67429;SDS011;54298;52.076;5.264;2022-12-11T10:47:00;42.1;;;30.9;;
67429;SDS011;54298;52.076;5.264;2022-12-11T10:48:43;44.7;;;31.5;;
67429;SDS011;54298;52.076;5.264;2022-12-11T10:50:21;41.9;;;27.9;;
67429;SDS011;54298;52.076;5.264;2022-12-11T10:53:48;56.7;;;38.1;;
67429;SDS011;54298;52.076;5.264;2022-12-11T10:55:26;45.1;;;33.0;;
67429;SDS011;54298;52.076;5.264;2022-12-11T10:57:06;50.6;;;38.0;;
67429;SDS011;54298;52.076;5.264;2022-12-11T10:58:46;36.21;;;28.6;;
67429;SDS011;54298;52.076;5.264;2022-12-11T11:02:15;68.41;;;46.8;;
67429;SDS011;54298;52.076;5.264;2022-12-11T11:03:57;36.6;;;25.8;;
67429;SDS011;54298;52.076;5.264;2022-12-11T11:05:37;38.9;;;31.6;;
67429;SDS011;54298;52.076;5.264;2022-12-11T11:07:14;37.71;;;30.1;;
67429;SDS011;54298;52.076;5.264;2022-12-11T11:08:57;35.71;;;24.8;;
67429;SDS011;54298;52.076;5.264;2022-12-11T11:12:17;39.21;;;31.1;;
67429;SDS011;54298;52.076;5.264;2022-12-11T11:14:09;38.21;;;29.6;;
67429;SDS011;54298;52.076;5.264;2022-12-11T11:15:57;39.5;;;28.4;;
67429;SDS011;54298;52.076;5.264;2022-12-11T11:17:39;35.1;;;25.8;;
67429;SDS011;54298;52.076;5.264;2022-12-11T11:19:20;36.5;;;25.9;;
67429;SDS011;54298;52.076;5.264;2022-12-11T11:22:37;40.21;;;27.2;;
67429;SDS011;54298;52.076;5.264;2022-12-11T11:24:19;36.81;;;28.9;;
67429;SDS011;54298;52.076;5.264;2022-12-11T11:26:05;38.0;;;26.3;;
67429;SDS011;54298;52.076;5.264;2022-12-11T11:27:43;37.21;;;28.8;;
67429;SDS011;54298;52.076;5.264;2022-12-11T11:31:06;35.5;;;25.9;;
67429;SDS011;54298;52.076;5.264;2022-12-11T11:32:46;37.0;;;28.4;;
67429;SDS011;54298;52.076;5.264;2022-12-11T11:34:29;37.21;;;27.4;;
67429;SDS011;54298;52.076;5.264;2022-12-11T11:36:06;32.9;;;23.8;;
67429;SDS011;54298;52.076;5.264;2022-12-11T11:39:52;33.1;;;24.6;;
67429;SDS011;54298;52.076;5.264;2022-12-11T11:41:36;37.31;;;29.6;;
67429;SDS011;54298;52.076;5.264;2022-12-11T11:43:24;35.0;;;27.8;;
67429;SDS011;54298;52.076;5.264;2022-12-11T11:45:10;34.71;;;25.9;;
67429;SDS011;54298;52.076;5.264;2022-12-11T11:46:53;36.0;;;26.7;;
67429;SDS011;54298;52.076;5.264;2022-12-11T11:50:21;33.71;;;25.0;;
67429;SDS011;54298;52.076;5.264;2022-12-11T11:52:06;36.6;;;26.1;;
67429;SDS011;54298;52.076;5.264;2022-12-11T11:53:50;37.21;;;27.0;;
67429;SDS011;54298;52.076;5.264;2022-12-11T11:55:34;33.8;;;24.1;;
67429;SDS011;54298;52.076;5.264;2022-12-11T11:57:23;35.71;;;27.3;;
67429;SDS011;54298;52.076;5.264;2022-12-11T11:59:19;37.71;;;27.5;;
67429;SDS011;54298;52.076;5.264;2022-12-11T12:02:37;36.81;;;25.9;;
67429;SDS011;54298;52.076;5.264;2022-12-11T12:04:15;32.3;;;21.9;;
67429;SDS011;54298;52.076;5.264;2022-12-11T12:05:53;32.3;;;21.9;;
67429;SDS011;54298;52.076;5.264;2022-12-11T12:07:35;44.1;;;32.3;;
67429;SDS011;54298;52.076;5.264;2022-12-11T12:11:16;40.4;;;29.8;;
67429;SDS011;54298;52.076;5.264;2022-12-11T12:13:05;42.2;;;28.3;;
67429;SDS011;54298;52.076;5.264;2022-12-11T12:14:56;37.4;;;25.7;;
67429;SDS011;54298;52.076;5.264;2022-12-11T12:16:51;37.9;;;27.8;;
67429;SDS011;54298;52.076;5.264;2022-12-11T12:18:40;37.9;;;27.0;;
67429;SDS011;54298;52.076;5.264;2022-12-11T12:20:28;48.7;;;34.4;;
67429;SDS011;54298;52.076;5.264;2022-12-11T12:22:17;39.6;;;29.0;;
67429;SDS011;54298;52.076;5.264;2022-12-11T12:25:56;39.6;;;29.0;;
67429;SDS011;54298;52.076;5.264;2022-12-11T12:27:43;86.0;;;51.4;;
67429;SDS011;54298;52.076;5.264;2022-12-11T12:29:27;44.6;;;33.9;;
67429;SDS011;54298;52.076;5.264;2022-12-11T12:31:27;55.6;;;36.9;;
67429;SDS011;54298;52.076;5.264;2022-12-11T12:33:23;49.3;;;35.0;;
67429;SDS011;54298;52.076;5.264;2022-12-11T12:35:18;44.4;;;32.5;;
67429;SDS011;54298;52.076;5.264;2022-12-11T12:37:09;43.2;;;31.2;;